Time;durP1;ratioP1;P1;durP2;ratioP2;P2;SDS_P1;SDS_P2;PMS_P1;PMS_P2;Temp;Humidity;BMP_temperature;BMP_pressure;BME280_temperature;BME280_humidity;BME280_pressure;Samples;Min_cycle;Max_cycle;Signal;HPM_P1;HPM_P2
2021/01/24 00:01:22;;;;;;;25.43;12.77;;;;;;;5.46;76.38;99482.22;121723;1141;104337;-76
2021/01/24 00:03:50;;;;;;;25.10;13.00;;;;;;;5.45;76.52;99483.03;121409;1141;104383;-76
2021/01/24 00:06:20;;;;;;;26.77;14.47;;;;;;;5.42;76.62;99480.31;121639;1141;104373;-77
2021/01/24 00:08:49;;;;;;;27.40;13.27;;;;;;;5.40;76.51;99477.64;121734;1141;104969;-77
2021/01/24 00:11:20;;;;;;;25.10;14.30;;;;;;;5.38;76.33;99485.39;121728;1141;104362;-77
2021/01/24 00:13:49;;;;;;;25.50;12.23;;;;;;;5.36;76.90;99475.73;121350;1141;104452;-78
2021/01/24 00:16:19;;;;;;;24.37;12.27;;;;;;;5.32;76.67;99471.25;121748;1141;104410;-76
2021/01/24 00:18:48;;;;;;;26.00;12.00;;;;;;;5.32;77.02;99469.53;121671;1141;104338;-76
2021/01/24 00:21:17;;;;;;;26.10;12.07;;;;;;;5.31;76.63;99465.14;121367;1141;104436;-77
2021/01/24 00:23:46;;;;;;;24.87;12.23;;;;;;;5.34;76.40;99460.06;121727;1141;104342;-77
2021/01/24 00:26:15;;;;;;;26.00;12.30;;;;;;;5.35;76.52;99461.85;121729;1141;104450;-76
2021/01/24 00:28:44;;;;;;;26.35;13.25;;;;;;;5.36;76.65;99460.13;121349;1141;104336;-77
2021/01/24 00:31:13;;;;;;;26.95;12.65;;;;;;;5.36;77.04;99454.92;121676;1141;104342;-77
2021/01/24 00:33:42;;;;;;;26.10;12.17;;;;;;;5.35;77.23;99453.17;121755;1140;104350;-78
2021/01/24 00:44:04;;;;;;;22.40;10.47;;;;;;;5.53;77.37;99429.56;121406;1141;104416;-78
2021/01/24 00:46:51;;;;;;;25.70;11.37;;;;;;;5.60;77.49;99428.98;121280;1141;104435;-77
2021/01/24 00:49:20;;;;;;;23.67;11.37;;;;;;;5.66;77.56;99428.34;121680;1140;104463;-77
2021/01/24 00:51:52;;;;;;;24.63;12.13;;;;;;;5.69;77.59;99424.13;121689;1141;104426;-78
2021/01/24 00:54:22;;;;;;;27.10;13.30;;;;;;;5.74;77.40;99416.50;121359;1141;104336;-78
2021/01/24 00:56:51;;;;;;;29.97;13.90;;;;;;;5.76;77.44;99420.95;121817;1141;104508;-78
2021/01/24 00:59:20;;;;;;;24.67;12.23;;;;;;;5.78;77.44;99420.09;121696;1141;104442;-76
2021/01/24 01:01:48;;;;;;;30.53;12.30;;;;;;;5.78;77.11;99413.19;121723;1141;104358;-76
2021/01/24 01:04:17;;;;;;;25.77;11.37;;;;;;;5.78;77.41;99415.80;121733;1141;104400;-77
2021/01/24 01:06:46;;;;;;;25.23;10.43;;;;;;;5.76;77.39;99412.23;121721;1139;104364;-76
2021/01/24 01:09:16;;;;;;;25.70;10.60;;;;;;;5.70;77.26;99415.51;121351;1141;104426;-77
2021/01/24 01:11:45;;;;;;;27.07;12.40;;;;;;;5.62;77.10;99411.70;121732;1141;104444;-78
2021/01/24 01:14:14;;;;;;;26.00;12.47;;;;;;;5.59;77.47;99406.38;121359;1141;104451;-77
2021/01/24 01:16:43;;;;;;;26.37;12.40;;;;;;;5.57;77.28;99406.33;121685;1141;104338;-78
2021/01/24 01:19:13;;;;;;;27.00;11.10;;;;;;;5.55;77.12;99404.52;121735;1141;104404;-78
2021/01/24 01:21:43;;;;;;;24.33;12.40;;;;;;;5.54;77.13;99398.40;121316;1141;104547;-78
2021/01/24 01:24:19;;;;;;;21.17;10.27;;;;;;;5.52;76.95;99400.06;121664;1141;104371;-78
2021/01/24 01:26:52;;;;;;;26.30;11.27;;;;;;;5.47;77.35;99400.70;121335;1141;104361;-77
2021/01/24 01:29:23;;;;;;;26.13;12.07;;;;;;;5.42;77.54;99399.66;121751;1141;104496;-78
2021/01/24 01:31:53;;;;;;;23.10;11.73;;;;;;;5.38;77.38;99396.05;121398;1144;104373;-78
2021/01/24 01:34:22;;;;;;;21.67;11.23;;;;;;;5.32;77.21;99395.81;121445;1141;104406;-77
2021/01/24 01:36:52;;;;;;;22.80;9.83;;;;;;;5.27;77.37;99392.16;121661;1141;104473;-79
2021/01/24 01:39:22;;;;;;;24.70;11.00;;;;;;;5.25;77.37;99386.90;121715;1141;104399;-77
2021/01/24 01:41:51;;;;;;;22.87;10.47;;;;;;;5.24;77.53;99392.91;121715;1141;104460;-77
2021/01/24 01:44:20;;;;;;;24.00;10.33;;;;;;;5.27;77.45;99386.96;121706;1141;104911;-75
2021/01/24 01:46:52;;;;;;;23.50;10.27;;;;;;;5.31;77.58;99389.70;121793;1141;104458;-78
2021/01/24 01:49:24;;;;;;;22.80;10.93;;;;;;;5.34;77.96;99391.55;121375;1141;104442;-80
2021/01/24 01:51:53;;;;;;;25.55;11.45;;;;;;;5.38;78.08;99391.73;121485;1141;104360;-78
2021/01/24 01:54:22;;;;;;;27.03;12.17;;;;;;;5.37;77.77;99384.74;121365;1141;104352;-76
2021/01/24 01:56:51;;;;;;;24.03;10.23;;;;;;;5.35;77.92;99391.61;121729;1141;104336;-76
2021/01/24 01:59:20;;;;;;;27.87;11.90;;;;;;;5.35;77.91;99390.73;121693;1140;104481;-76
2021/01/24 02:02:04;;;;;;;28.03;12.17;;;;;;;5.34;77.36;99391.55;121669;1141;104345;-76
2021/01/24 02:04:39;;;;;;;26.47;12.07;;;;;;;5.33;77.76;99380.27;121362;1141;104344;-77
2021/01/24 02:07:15;;;;;;;23.90;10.30;;;;;;;5.33;77.48;99380.27;121431;1141;104422;-76
2021/01/24 02:09:51;;;;;;;23.60;11.33;;;;;;;5.34;77.75;99379.42;121727;1141;104472;-79
2021/01/24 02:12:26;;;;;;;27.07;11.43;;;;;;;5.37;77.65;99384.74;121346;1141;104336;-77
2021/01/24 02:15:04;;;;;;;25.65;11.45;;;;;;;5.42;78.14;99376.23;121700;1141;104570;-77
2021/01/24 02:17:37;;;;;;;26.20;12.10;;;;;;;5.42;78.08;99382.31;121341;1141;104332;-76
2021/01/24 02:20:15;;;;;;;26.30;11.77;;;;;;;5.43;78.07;99375.42;121450;1141;104822;-77
2021/01/24 02:22:48;;;;;;;28.30;13.43;;;;;;;5.42;77.91;99381.44;121712;1141;104433;-77
2021/01/24 02:25:22;;;;;;;28.95;12.80;;;;;;;5.41;78.12;99377.97;121376;1141;104368;-76
2021/01/24 02:27:59;;;;;;;27.95;13.25;;;;;;;5.40;77.97;99373.58;121668;1141;104407;-77
2021/01/24 02:30:31;;;;;;;29.47;12.67;;;;;;;5.39;78.22;99362.30;121341;1141;104376;-77
2021/01/24 02:33:04;;;;;;;26.47;11.70;;;;;;;5.42;78.02;99355.42;121695;1141;104842;-76
2021/01/24 02:35:38;;;;;;;28.33;11.63;;;;;;;5.40;77.99;99356.24;121376;1141;104451;-76
2021/01/24 02:38:09;;;;;;;32.70;11.80;;;;;;;5.40;78.12;99364.05;121748;1141;104349;-78
2021/01/24 02:40:41;;;;;;;27.40;13.47;;;;;;;5.38;78.17;99363.11;121651;1141;104345;-77
2021/01/24 02:43:12;;;;;;;26.95;12.45;;;;;;;5.39;78.19;99362.30;121719;1141;104333;-78
2021/01/24 02:45:43;;;;;;;27.87;12.23;;;;;;;5.37;77.94;99363.05;121407;1141;104402;-77
2021/01/24 02:48:14;;;;;;;28.63;11.67;;;;;;;5.36;78.16;99359.58;121692;1141;104449;-77
2021/01/24 02:50:45;;;;;;;26.80;12.13;;;;;;;5.36;78.57;99350.86;121691;1141;104471;-77
2021/01/24 02:53:15;;;;;;;27.60;12.73;;;;;;;5.37;78.40;99352.65;121347;1141;104499;-77
2021/01/24 02:55:45;;;;;;;28.60;11.03;;;;;;;5.37;78.63;99358.73;121735;1141;104458;-77
2021/01/24 02:58:15;;;;;;;29.90;13.93;;;;;;;5.38;78.57;99344.03;121351;1141;104374;-77
2021/01/24 03:00:44;;;;;;;31.67;13.57;;;;;;;5.38;78.45;99350.11;121728;1141;104790;-77
2021/01/24 03:03:13;;;;;;;31.07;12.70;;;;;;;5.38;78.66;99347.50;121719;1141;104344;-77
2021/01/24 03:05:42;;;;;;;27.80;11.37;;;;;;;5.39;78.34;99350.98;121318;1141;104341;-77
2021/01/24 03:08:11;;;;;;;26.33;11.57;;;;;;;5.42;78.67;99351.09;121733;1141;104329;-78
2021/01/24 03:10:40;;;;;;;26.63;11.70;;;;;;;5.44;78.42;99346.86;121423;1141;104377;-78
2021/01/24 03:13:15;;;;;;;27.47;11.40;;;;;;;5.47;78.54;99346.98;121727;1141;104339;-77
2021/01/24 03:15:45;;;;;;;32.17;12.50;;;;;;;5.50;78.65;99340.98;121744;1141;104930;-78
2021/01/24 03:18:21;;;;;;;28.63;12.97;;;;;;;5.52;78.42;99337.62;121345;1141;104342;-76
2021/01/24 03:20:52;;;;;;;33.07;12.10;;;;;;;5.50;78.84;99335.77;121732;1141;104377;-76
2021/01/24 03:23:23;;;;;;;29.17;12.93;;;;;;;5.53;78.63;99328.99;121339;1141;104358;-75
2021/01/24 03:25:54;;;;;;;26.97;12.20;;;;;;;5.57;79.03;99329.98;121718;1141;104361;-76
2021/01/24 03:28:24;;;;;;;27.03;11.47;;;;;;;5.60;78.71;99324.89;121376;1141;104471;-77
2021/01/24 03:30:53;;;;;;;28.07;12.43;;;;;;;5.62;78.65;99312.81;121683;1141;104490;-75
2021/01/24 03:33:22;;;;;;;27.73;13.20;;;;;;;5.63;78.82;99316.32;121720;1141;104357;-75
2021/01/24 03:35:51;;;;;;;28.40;13.20;;;;;;;5.65;78.45;99310.32;121344;1141;105212;-76
2021/01/24 03:38:21;;;;;;;31.40;14.23;;;;;;;5.65;78.82;99307.72;121660;1141;104342;-76
2021/01/24 03:40:50;;;;;;;31.90;13.20;;;;;;;5.64;78.34;99305.97;121289;1141;104911;-76
2021/01/24 03:43:19;;;;;;;31.03;13.23;;;;;;;5.63;78.37;99304.19;121592;1141;104482;-76
2021/01/24 03:45:53;;;;;;;32.50;13.80;;;;;;;5.62;78.93;99301.52;121618;1141;104370;-75
2021/01/24 03:48:23;;;;;;;26.13;11.97;;;;;;;5.59;78.64;99299.69;121351;1141;104343;-77
2021/01/24 03:50:53;;;;;;;25.37;11.27;;;;;;;5.58;78.62;99304.02;121658;1141;104521;-76
2021/01/24 03:53:22;;;;;;;30.47;11.13;;;;;;;5.59;78.82;99304.89;121200;1141;104494;-77
2021/01/24 03:55:51;;;;;;;29.50;12.03;;;;;;;5.60;78.86;99304.07;121284;1141;104375;-77
2021/01/24 03:58:20;;;;;;;23.80;11.50;;;;;;;5.61;78.94;99297.14;121598;1141;104855;-76
2021/01/24 04:00:49;;;;;;;28.07;12.27;;;;;;;5.57;78.73;99298.75;121215;1141;104457;-77
2021/01/24 04:03:18;;;;;;;29.33;11.37;;;;;;;5.55;78.69;99300.42;121713;1141;104340;-77
2021/01/24 04:05:47;;;;;;;30.00;10.83;;;;;;;5.56;78.96;99296.97;121329;1141;104375;-77
2021/01/24 04:08:16;;;;;;;27.27;10.60;;;;;;;5.56;78.88;99296.97;121647;1141;104335;-77
2021/01/24 04:10:45;;;;;;;29.53;11.30;;;;;;;5.53;78.83;99286.45;121618;1141;104833;-75
2021/01/24 04:13:15;;;;;;;29.57;10.93;;;;;;;5.52;79.08;99282.09;121687;1141;104436;-77
2021/01/24 04:15:46;;;;;;;23.17;10.13;;;;;;;5.52;79.16;99288.18;121324;1141;104327;-77
2021/01/24 04:18:16;;;;;;;22.77;9.10;;;;;;;5.56;79.31;99281.36;121325;1143;104389;-78
2021/01/24 04:20:45;;;;;;;24.20;10.77;;;;;;;5.56;79.27;99284.87;121322;1142;104352;-78
2021/01/24 04:23:16;;;;;;;26.83;11.23;;;;;;;5.56;79.26;99274.45;121344;1141;104341;-78
2021/01/24 04:25:46;;;;;;;25.57;10.97;;;;;;;5.55;79.07;99274.41;121355;1141;104397;-78
2021/01/24 04:28:15;;;;;;;24.00;9.80;;;;;;;5.55;79.29;99282.21;121360;1141;104343;-78
2021/01/24 04:30:45;;;;;;;24.77;10.23;;;;;;;5.55;79.06;99282.21;121322;1141;104344;-76
2021/01/24 04:33:15;;;;;;;22.03;8.90;;;;;;;5.57;79.03;99283.14;121351;1141;104447;-78
2021/01/24 04:35:45;;;;;;;23.20;9.17;;;;;;;5.61;79.44;99279.83;121353;1145;104345;-77
2021/01/24 04:38:14;;;;;;;23.73;10.47;;;;;;;5.61;79.28;99290.23;121326;1141;104472;-76
2021/01/24 04:40:43;;;;;;;25.80;10.80;;;;;;;5.59;79.15;99289.27;121341;1141;104407;-76
2021/01/24 04:43:13;;;;;;;29.23;10.37;;;;;;;5.62;79.50;99294.59;121339;1141;104374;-78
2021/01/24 04:45:42;;;;;;;23.83;10.10;;;;;;;5.61;79.19;99292.84;121333;1141;104444;-78
2021/01/24 04:48:12;;;;;;;23.83;8.33;;;;;;;5.63;79.22;99293.77;121344;1141;104455;-77
2021/01/24 04:50:41;;;;;;;26.27;9.70;;;;;;;5.64;79.48;99286.84;121349;1144;104335;-76
2021/01/24 04:53:11;;;;;;;24.47;9.10;;;;;;;5.68;79.05;99284.41;121333;1141;104452;-77
2021/01/24 04:55:41;;;;;;;23.73;9.43;;;;;;;5.72;79.43;99290.63;121331;1141;104400;-78
2021/01/24 04:58:10;;;;;;;25.97;10.07;;;;;;;5.75;79.62;99294.22;121358;1141;104332;-77
2021/01/24 05:00:39;;;;;;;26.53;9.57;;;;;;;5.75;79.51;99289.01;121400;1141;104350;-77
2021/01/24 05:03:09;;;;;;;25.63;9.43;;;;;;;5.76;79.56;99288.19;121300;1141;104503;-78
2021/01/24 05:05:38;;;;;;;21.80;8.43;;;;;;;5.80;79.28;99283.97;121372;1141;104380;-78
2021/01/24 05:08:11;;;;;;;22.20;8.40;;;;;;;5.84;79.45;99285.82;121347;1141;104583;-77
2021/01/24 05:10:44;;;;;;;23.03;8.03;;;;;;;5.89;79.42;99278.17;121368;1141;104601;-80
2021/01/24 05:13:24;;;;;;;16.17;6.57;;;;;;;5.93;79.37;99285.27;121365;1143;104385;-78
2021/01/24 05:15:57;;;;;;;18.97;7.30;;;;;;;5.98;79.49;99281.12;121388;1141;104392;-79
2021/01/24 05:18:26;;;;;;;18.17;7.43;;;;;;;6.03;79.33;99278.69;121380;1141;104347;-77
2021/01/24 05:20:57;;;;;;;23.63;8.63;;;;;;;6.08;79.53;99278.02;121285;1141;104339;-76
2021/01/24 05:23:26;;;;;;;26.25;8.75;;;;;;;6.15;79.65;99262.60;121279;1141;104452;-76
2021/01/24 05:25:57;;;;;;;22.83;7.37;;;;;;;6.18;79.55;99267.91;121254;1141;104372;-77
2021/01/24 05:28:29;;;;;;;21.80;7.90;;;;;;;6.20;79.64;99267.14;121246;1141;104342;-76
2021/01/24 05:31:05;;;;;;;18.63;8.23;;;;;;;6.25;79.89;99259.48;121227;1141;104442;-76
2021/01/24 05:33:34;;;;;;;21.20;7.40;;;;;;;6.27;79.58;99257.80;121229;1142;104476;-76
2021/01/24 05:36:07;;;;;;;19.50;7.55;;;;;;;6.32;79.52;99263.16;121216;1141;104424;-78
2021/01/24 05:38:36;;;;;;;21.20;8.13;;;;;;;6.35;79.66;99261.53;121314;1141;104381;-76
2021/01/24 05:41:08;;;;;;;18.70;7.60;;;;;;;6.36;79.96;99255.50;121353;1141;104340;-77
2021/01/24 05:43:38;;;;;;;20.83;8.13;;;;;;;6.39;79.82;99258.20;121332;1142;104400;-76
2021/01/24 05:46:09;;;;;;;19.80;7.93;;;;;;;6.42;79.71;99262.61;121349;1141;104838;-77
2021/01/24 05:48:46;;;;;;;23.87;7.57;;;;;;;6.46;79.96;99259.28;121271;1141;104358;-78
2021/01/24 05:51:16;;;;;;;20.53;8.00;;;;;;;6.49;79.93;99264.59;121340;1141;104407;-79
2021/01/24 05:53:50;;;;;;;20.03;7.43;;;;;;;6.53;80.03;99262.95;121324;1143;104444;-77
2021/01/24 05:56:21;;;;;;;19.77;7.37;;;;;;;6.55;79.83;99259.58;121335;1141;104338;-77
2021/01/24 05:58:55;;;;;;;24.30;8.03;;;;;;;6.59;80.14;99271.88;121329;1141;104547;-76
2021/01/24 06:01:26;;;;;;;23.13;7.87;;;;;;;6.62;80.02;99278.89;121327;1141;104339;-76
2021/01/24 06:03:57;;;;;;;19.97;7.00;;;;;;;6.66;79.86;99266.00;121358;1141;104478;-77
2021/01/24 06:06:26;;;;;;;20.83;7.70;;;;;;;6.70;79.66;99268.70;121377;1141;104342;-79
2021/01/24 06:08:55;;;;;;;21.73;7.40;;;;;;;6.74;79.68;99273.19;121376;1143;104374;-78
2021/01/24 06:11:26;;;;;;;16.73;7.10;;;;;;;6.76;79.50;99263.69;121341;1141;104369;-78
2021/01/24 06:13:57;;;;;;;20.75;8.60;;;;;;;6.77;79.50;99268.95;121250;1141;104439;-78
2021/01/24 06:16:35;;;;;;;20.20;8.50;;;;;;;6.79;79.77;99262.08;121554;1141;104342;-79
2021/01/24 06:19:08;;;;;;;23.35;8.40;;;;;;;6.82;79.82;99264.78;121426;1141;104429;-78
2021/01/24 06:21:41;;;;;;;20.57;8.03;;;;;;;6.84;79.88;99260.48;121653;1141;104380;-78
2021/01/24 06:24:15;;;;;;;22.75;8.40;;;;;;;6.88;79.85;99257.98;121673;1141;104400;-78
2021/01/24 06:26:49;;;;;;;24.17;8.27;;;;;;;6.91;80.08;99258.07;121632;1139;104435;-78
2021/01/24 06:29:21;;;;;;;25.97;8.98;;;;;;;6.94;80.12;99258.16;121697;1141;104439;-79
2021/01/24 06:31:51;;;;;;;24.50;8.40;;;;;;;6.98;79.86;99258.30;121622;1141;104345;-78
2021/01/24 06:34:34;;;;;;;21.53;9.00;;;;;;;7.03;79.86;99258.44;121640;1141;104338;-79
2021/01/24 06:37:08;;;;;;;22.87;8.50;;;;;;;7.09;79.86;99255.11;121693;1141;104463;-79
2021/01/24 06:39:48;;;;;;;;;;;;;;;7.11;79.79;99259.55;121602;1141;104348;-79
2021/01/24 06:42:45;;;;;;;22.50;8.20;;;;;;;7.11;79.59;99253.45;121630;1141;104335;-78
2021/01/24 06:45:39;;;;;;;18.67;7.67;;;;;;;7.13;79.70;99260.47;121383;1141;104391;-77
2021/01/24 06:48:14;;;;;;;23.38;8.63;;;;;;;7.19;79.86;99263.25;121376;1141;104348;-78
2021/01/24 06:50:48;;;;;;;19.40;7.60;;;;;;;7.26;79.87;99260.83;121624;1141;104460;-79
2021/01/24 06:53:23;;;;;;;18.50;7.12;;;;;;;7.32;79.86;99261.00;121693;1141;104455;-78
2021/01/24 06:56:01;;;;;;;22.87;7.30;;;;;;;7.36;79.64;99261.14;121722;1141;104343;-77
2021/01/24 06:58:32;;;;;;;21.03;7.90;;;;;;;7.38;79.49;99269.02;121745;1141;104433;-79
2021/01/24 07:01:25;;;;;;;20.27;7.43;;;;;;;7.41;80.15;99269.10;121691;1140;104339;-78
2021/01/24 07:04:19;;;;;;;21.17;7.40;;;;;;;7.44;80.13;99260.48;121708;1141;104498;-76
2021/01/24 07:06:48;;;;;;;;;;;;;;;7.48;80.05;99273.66;121729;1141;104349;-78
2021/01/24 07:09:41;;;;;;;19.60;7.23;;;;;;;7.53;79.53;99279.02;121735;1141;104357;-78
2021/01/24 07:12:12;;;;;;;18.87;7.33;;;;;;;7.59;79.86;99284.41;121718;1140;104359;-76
2021/01/24 07:14:51;;;;;;;19.07;7.10;;;;;;;7.68;79.50;99281.16;121712;1141;104339;-74
2021/01/24 07:17:20;;;;;;;16.50;7.30;;;;;;;7.76;79.79;99283.98;121677;1141;104468;-75
2021/01/24 07:19:51;;;;;;;19.77;7.50;;;;;;;7.80;79.58;99278.01;121603;1141;104525;-77
2021/01/24 07:22:24;;;;;;;22.47;7.93;;;;;;;7.85;79.84;99286.84;121646;1141;104343;-77
2021/01/24 07:25:04;;;;;;;25.37;8.10;;;;;;;7.87;79.28;99280.83;121619;1141;104353;-79
2021/01/24 07:27:37;;;;;;;24.07;7.77;;;;;;;7.87;79.60;99278.22;121695;1141;104332;-76
2021/01/24 07:30:11;;;;;;;18.33;7.70;;;;;;;7.88;79.69;99274.77;121661;1141;104825;-76
2021/01/24 07:32:41;;;;;;;25.33;8.97;;;;;;;7.90;79.62;99273.08;121673;1141;104432;-78
2021/01/24 07:35:12;;;;;;;24.40;8.60;;;;;;;7.94;79.75;99268.80;121694;1141;104343;-79
2021/01/24 07:37:42;;;;;;;22.30;8.13;;;;;;;7.97;79.55;99265.41;121702;1141;104333;-77
2021/01/24 07:40:13;;;;;;;21.07;7.80;;;;;;;7.98;79.87;99269.77;121456;1141;104497;-78
2021/01/24 07:42:42;;;;;;;21.73;8.00;;;;;;;8.00;79.75;99257.65;121673;1140;104619;-77
2021/01/24 07:45:15;;;;;;;18.43;7.30;;;;;;;8.01;79.25;99249.85;121645;1141;104401;-75
2021/01/24 07:47:50;;;;;;;21.73;9.10;;;;;;;8.04;79.92;99254.25;121404;1141;104406;-78
2021/01/24 07:50:21;;;;;;;23.55;8.95;;;;;;;8.07;79.98;99250.01;121336;1141;104447;-78
2021/01/24 07:52:51;;;;;;;19.17;7.67;;;;;;;8.14;79.61;99251.04;121337;1141;104386;-78
2021/01/24 07:55:20;;;;;;;23.13;8.50;;;;;;;8.18;79.90;99257.22;121713;1141;104469;-78
2021/01/24 07:57:50;;;;;;;23.20;9.20;;;;;;;8.21;79.34;99244.23;121682;1141;104436;-78
2021/01/24 08:00:20;;;;;;;23.30;8.70;;;;;;;8.23;79.23;99251.27;121708;1141;104335;-76
2021/01/24 08:02:50;;;;;;;18.90;7.33;;;;;;;8.28;79.59;99254.87;121653;1141;104336;-78
2021/01/24 08:05:22;;;;;;;23.83;8.43;;;;;;;8.34;79.92;99245.44;121624;1141;104808;-77
2021/01/24 08:07:52;;;;;;;22.77;8.07;;;;;;;8.41;79.55;99245.63;121666;1141;104468;-79
2021/01/24 08:10:21;;;;;;;23.73;8.27;;;;;;;8.50;79.96;99244.11;121695;1141;104380;-77
2021/01/24 08:12:52;;;;;;;22.33;8.10;;;;;;;8.60;79.52;99251.30;121611;1141;104377;-76
2021/01/24 08:15:21;;;;;;;21.43;7.83;;;;;;;8.71;79.69;99241.09;121614;1141;104409;-77
2021/01/24 08:17:52;;;;;;;17.87;7.33;;;;;;;8.82;79.04;99247.48;121649;1141;104359;-77
2021/01/24 08:20:23;;;;;;;21.03;8.30;;;;;;;8.93;79.05;99245.10;121731;1141;104337;-76
2021/01/24 08:22:52;;;;;;;23.27;7.53;;;;;;;9.02;78.94;99239.17;121725;1141;104335;-77
2021/01/24 08:25:21;;;;;;;20.30;8.10;;;;;;;9.12;79.38;99231.55;121734;1141;104406;-77
2021/01/24 08:27:51;;;;;;;20.17;8.27;;;;;;;9.20;78.82;99236.95;121690;1141;104457;-76
2021/01/24 08:30:22;;;;;;;21.20;8.30;;;;;;;9.33;78.95;99236.36;121669;1141;104406;-76
2021/01/24 08:32:51;;;;;;;21.63;8.23;;;;;;;9.40;79.20;99223.39;121701;1141;104338;-75
2021/01/24 08:35:20;;;;;;;18.23;7.83;;;;;;;9.37;78.85;99232.06;121668;1141;104345;-76
2021/01/24 08:37:52;;;;;;;20.30;8.77;;;;;;;9.32;79.02;99229.34;121702;1141;104462;-77
2021/01/24 08:40:31;;;;;;;20.00;7.63;;;;;;;9.33;79.03;99225.89;121730;1141;104336;-76
2021/01/24 08:43:02;;;;;;;19.77;7.20;;;;;;;9.35;78.58;99224.17;121470;1141;104449;-78
2021/01/24 08:45:31;;;;;;;21.67;7.87;;;;;;;9.37;78.53;99221.59;121720;1141;104462;-77
2021/01/24 08:48:02;;;;;;;19.30;7.23;;;;;;;9.43;79.16;99231.31;121704;1141;104471;-77
2021/01/24 08:50:36;;;;;;;25.73;7.87;;;;;;;9.51;79.05;99227.10;121637;1141;104343;-77
2021/01/24 08:53:06;;;;;;;18.77;6.87;;;;;;;9.59;79.03;99227.25;121656;1141;104454;-77
2021/01/24 08:55:47;;;;;;;19.17;6.80;;;;;;;9.64;78.86;99231.70;121669;1141;104339;-77
2021/01/24 08:58:27;;;;;;;18.33;6.40;;;;;;;9.67;78.88;99231.77;121688;1141;104466;-76
2021/01/24 09:01:05;;;;;;;20.67;7.50;;;;;;;9.70;78.08;99244.91;121697;1141;104338;-78
2021/01/24 09:03:34;;;;;;;17.97;6.73;;;;;;;9.71;78.83;99258.92;121699;1141;104358;-78
2021/01/24 09:06:18;;;;;;;17.97;7.33;;;;;;;9.73;78.38;99251.09;121669;1141;104343;-77
2021/01/24 09:08:49;;;;;;;16.77;6.40;;;;;;;9.69;78.31;99261.50;121700;1141;104472;-77
2021/01/24 09:11:18;;;;;;;19.13;6.60;;;;;;;9.69;78.58;99248.41;121690;1141;104693;-77
2021/01/24 09:13:48;;;;;;;19.30;7.00;;;;;;;9.72;78.89;99239.70;121666;1141;104348;-77
2021/01/24 09:16:20;;;;;;;18.60;7.87;;;;;;;9.75;78.61;99236.27;121687;1141;104919;-78
2021/01/24 09:18:49;;;;;;;22.37;6.70;;;;;;;9.87;78.23;99237.38;121655;1141;104463;-77
2021/01/24 09:21:18;;;;;;;16.13;6.60;;;;;;;9.98;78.42;99236.70;121749;1141;104332;-77
2021/01/24 09:23:48;;;;;;;19.47;6.83;;;;;;;10.02;78.81;99223.67;121684;1141;104363;-78
2021/01/24 09:26:17;;;;;;;18.17;7.13;;;;;;;10.03;78.46;99230.66;121692;1141;104460;-77
2021/01/24 09:28:46;;;;;;;24.40;7.63;;;;;;;10.02;77.96;99226.30;121719;1141;104342;-77
2021/01/24 09:31:14;;;;;;;16.23;6.27;;;;;;;10.00;78.39;99227.11;121707;1141;104383;-77
2021/01/24 09:33:44;;;;;;;16.23;7.40;;;;;;;10.00;78.51;99225.40;121702;1141;104365;-76
2021/01/24 09:36:13;;;;;;;16.47;6.90;;;;;;;10.04;78.58;99224.57;121682;1141;104380;-77
2021/01/24 09:38:41;;;;;;;13.50;6.17;;;;;;;10.12;78.25;99218.59;121687;1141;104466;-77
2021/01/24 09:41:11;;;;;;;18.17;6.63;;;;;;;10.16;78.38;99220.39;121769;1141;104403;-75
2021/01/24 09:43:42;;;;;;;20.43;7.23;;;;;;;10.20;78.07;99217.84;121746;1140;104333;-75
2021/01/24 09:46:12;;;;;;;18.33;6.33;;;;;;;10.24;78.55;99210.94;121716;1141;104345;-76
2021/01/24 09:48:41;;;;;;;20.50;7.17;;;;;;;10.30;77.93;99218.00;121704;1141;104436;-75
2021/01/24 09:51:10;;;;;;;18.60;7.43;;;;;;;10.34;78.31;99201.50;121692;1141;104583;-75
2021/01/24 09:53:39;;;;;;;18.30;6.83;;;;;;;10.35;78.18;99200.66;121730;1141;104793;-76
2021/01/24 09:56:08;;;;;;;18.50;7.20;;;;;;;10.37;78.05;99188.44;121722;1141;104356;-76
2021/01/24 09:58:37;;;;;;;18.70;7.10;;;;;;;10.39;78.32;99194.58;121722;1141;104367;-76
2021/01/24 10:01:06;;;;;;;15.23;6.30;;;;;;;10.38;78.08;99187.59;121686;1141;104339;-76
2021/01/24 10:03:35;;;;;;;14.73;6.47;;;;;;;10.39;78.14;99184.09;121690;1141;104433;-75
2021/01/24 10:06:05;;;;;;;15.93;6.90;;;;;;;10.42;77.73;99178.89;121747;1141;104333;-76
2021/01/24 10:08:34;;;;;;;17.80;7.30;;;;;;;10.50;78.47;99186.88;121695;1141;104432;-76
2021/01/24 10:11:03;;;;;;;18.10;6.90;;;;;;;10.59;78.45;99185.27;121737;1141;104342;-76
2021/01/24 10:13:33;;;;;;;17.73;7.63;;;;;;;10.70;78.29;99177.55;121712;1141;104461;-76
2021/01/24 10:16:02;;;;;;;18.70;7.43;;;;;;;10.74;77.96;99176.74;121675;1141;104495;-76
2021/01/24 10:18:32;;;;;;;16.47;7.53;;;;;;;10.77;77.85;99168.91;121681;1141;104792;-76
2021/01/24 10:21:01;;;;;;;17.20;7.47;;;;;;;10.75;78.12;99165.39;121733;1141;104436;-76
2021/01/24 10:23:30;;;;;;;19.97;6.97;;;;;;;10.77;77.88;99168.91;121702;1141;104454;-76
2021/01/24 10:25:59;;;;;;;17.80;7.07;;;;;;;10.79;77.72;99166.31;121432;1141;104410;-76
2021/01/24 10:28:29;;;;;;;14.85;6.35;;;;;;;10.83;77.78;99168.13;121681;1141;104958;-77
2021/01/24 10:30:58;;;;;;;14.23;6.13;;;;;;;10.85;77.79;99166.39;121708;1141;104340;-76
2021/01/24 10:33:27;;;;;;;14.00;6.50;;;;;;;10.90;77.67;99174.33;121422;1141;104575;-77
2021/01/24 10:35:56;;;;;;;16.37;6.70;;;;;;;10.94;78.01;99170.89;121713;1141;104342;-77
2021/01/24 10:38:25;;;;;;;15.65;6.50;;;;;;;10.97;77.90;99161.30;121736;1141;104470;-76
2021/01/24 10:40:54;;;;;;;18.43;8.13;;;;;;;10.98;77.65;99146.42;121665;1141;104332;-77
2021/01/24 10:43:23;;;;;;;16.93;7.47;;;;;;;10.97;77.49;99148.18;121756;1141;104330;-79
2021/01/24 10:45:52;;;;;;;15.80;7.23;;;;;;;10.95;77.55;99139.42;121644;1141;104458;-78
2021/01/24 10:48:21;;;;;;;17.83;7.00;;;;;;;10.97;77.60;99144.69;121725;1141;104338;-79
2021/01/24 10:50:51;;;;;;;19.60;7.60;;;;;;;11.00;77.91;99144.72;121733;1141;104337;-75
2021/01/24 10:53:20;;;;;;;17.53;7.40;;;;;;;11.04;77.40;99146.50;121659;1141;104519;-77
2021/01/24 10:55:50;;;;;;;19.40;8.40;;;;;;;11.08;77.55;99153.56;121703;1141;104342;-75
2021/01/24 10:58:19;;;;;;;19.80;8.90;;;;;;;11.10;77.27;99145.70;121702;1141;104430;-76
2021/01/24 11:00:48;;;;;;;18.77;8.23;;;;;;;11.10;76.99;99146.58;121743;1141;105077;-76
2021/01/24 11:03:17;;;;;;;21.73;8.60;;;;;;;11.13;77.02;99151.86;121716;1141;104360;-76
2021/01/24 11:05:46;;;;;;;18.87;9.00;;;;;;;11.09;76.72;99147.42;121718;1141;104479;-75
2021/01/24 11:08:15;;;;;;;20.10;9.57;;;;;;;11.06;77.29;99152.64;121700;1141;104343;-76
2021/01/24 11:10:44;;;;;;;21.80;9.53;;;;;;;11.06;76.99;99144.77;121716;1140;104384;-75
2021/01/24 11:13:13;;;;;;;22.60;9.87;;;;;;;11.10;76.99;99136.08;121619;1141;104364;-77
2021/01/24 11:15:42;;;;;;;20.43;9.50;;;;;;;11.13;77.14;99143.98;121590;1141;104567;-76
2021/01/24 11:18:11;;;;;;;19.63;7.97;;;;;;;11.18;77.21;99136.16;121607;1140;104362;-75
2021/01/24 11:20:39;;;;;;;17.67;7.97;;;;;;;11.26;77.01;99141.50;121251;1141;104329;-77
2021/01/24 11:23:11;;;;;;;17.90;8.73;;;;;;;11.33;76.86;99146.84;121544;1141;104348;-78
2021/01/24 11:25:40;;;;;;;19.93;9.07;;;;;;;11.38;76.54;99144.27;121640;1141;104463;-77
2021/01/24 11:28:11;;;;;;;17.83;9.17;;;;;;;11.32;76.62;99137.19;121715;1141;104434;-77
2021/01/24 11:30:41;;;;;;;18.17;9.57;;;;;;;11.28;76.98;99139.77;121661;1141;104357;-77
2021/01/24 11:33:10;;;;;;;20.43;10.37;;;;;;;11.20;76.49;99136.19;121652;1141;104339;-76
2021/01/24 11:35:39;;;;;;;23.20;10.67;;;;;;;11.11;76.83;99132.59;121328;1141;104339;-75
2021/01/24 11:38:07;;;;;;;21.77;9.80;;;;;;;11.07;77.05;99130.79;121734;1141;104342;-77